sensor_id;sensor_type;location;lat;lon;timestamp;P1;durP1;ratioP1;P2;durP2;ratioP2
5662;SDS011;2854;42.692;23.364;2022-07-29T00:00:33;9.20;;;7.00;;
5662;SDS011;2854;42.692;23.364;2022-07-29T00:02:58;7.37;;;6.50;;
5662;SDS011;2854;42.692;23.364;2022-07-29T00:05:23;8.60;;;7.00;;
5662;SDS011;2854;42.692;23.364;2022-07-29T00:07:49;8.50;;;7.20;;
5662;SDS011;2854;42.692;23.364;2022-07-29T00:10:14;8.47;;;6.20;;
5662;SDS011;2854;42.692;23.364;2022-07-29T00:12:39;7.27;;;6.37;;
5662;SDS011;2854;42.692;23.364;2022-07-29T00:15:05;14.20;;;6.13;;
5662;SDS011;2854;42.692;23.364;2022-07-29T00:17:30;8.33;;;6.57;;
5662;SDS011;2854;42.692;23.364;2022-07-29T00:19:55;7.03;;;6.23;;
5662;SDS011;2854;42.692;23.364;2022-07-29T00:22:20;9.23;;;6.90;;
5662;SDS011;2854;42.692;23.364;2022-07-29T00:24:49;7.33;;;6.50;;
5662;SDS011;2854;42.692;23.364;2022-07-29T00:27:14;7.40;;;6.67;;
5662;SDS011;2854;42.692;23.364;2022-07-29T00:29:39;8.00;;;6.80;;
5662;SDS011;2854;42.692;23.364;2022-07-29T00:32:05;8.80;;;6.97;;
5662;SDS011;2854;42.692;23.364;2022-07-29T00:34:30;9.17;;;6.23;;
5662;SDS011;2854;42.692;23.364;2022-07-29T00:37:14;6.57;;;5.97;;
5662;SDS011;2854;42.692;23.364;2022-07-29T00:39:39;9.60;;;6.80;;
5662;SDS011;2854;42.692;23.364;2022-07-29T00:42:05;9.77;;;6.93;;
5662;SDS011;2854;42.692;23.364;2022-07-29T00:44:30;10.57;;;7.50;;
5662;SDS011;2854;42.692;23.364;2022-07-29T00:46:56;9.83;;;6.83;;
5662;SDS011;2854;42.692;23.364;2022-07-29T00:49:21;10.60;;;7.60;;
5662;SDS011;2854;42.692;23.364;2022-07-29T00:51:46;8.73;;;7.37;;
5662;SDS011;2854;42.692;23.364;2022-07-29T00:54:13;13.00;;;8.43;;
5662;SDS011;2854;42.692;23.364;2022-07-29T00:56:38;13.70;;;8.77;;
5662;SDS011;2854;42.692;23.364;2022-07-29T00:59:03;10.40;;;7.37;;
5662;SDS011;2854;42.692;23.364;2022-07-29T01:01:29;8.80;;;7.67;;
5662;SDS011;2854;42.692;23.364;2022-07-29T01:03:54;10.20;;;8.30;;
5662;SDS011;2854;42.692;23.364;2022-07-29T01:06:19;10.23;;;8.33;;
5662;SDS011;2854;42.692;23.364;2022-07-29T01:08:45;13.90;;;8.80;;
5662;SDS011;2854;42.692;23.364;2022-07-29T01:11:12;15.70;;;9.90;;
5662;SDS011;2854;42.692;23.364;2022-07-29T01:13:38;11.17;;;8.80;;
5662;SDS011;2854;42.692;23.364;2022-07-29T01:16:04;12.70;;;8.70;;
5662;SDS011;2854;42.692;23.364;2022-07-29T01:18:32;23.73;;;10.27;;
5662;SDS011;2854;42.692;23.364;2022-07-29T01:31:01;17.83;;;9.80;;
5662;SDS011;2854;42.692;23.364;2022-07-29T01:33:27;22.80;;;9.60;;
5662;SDS011;2854;42.692;23.364;2022-07-29T01:36:13;17.23;;;9.17;;
5662;SDS011;2854;42.692;23.364;2022-07-29T01:38:41;14.50;;;10.40;;
5662;SDS011;2854;42.692;23.364;2022-07-29T01:41:09;14.83;;;10.10;;
5662;SDS011;2854;42.692;23.364;2022-07-29T01:43:50;15.10;;;10.03;;
5662;SDS011;2854;42.692;23.364;2022-07-29T01:46:21;11.10;;;8.70;;
5662;SDS011;2854;42.692;23.364;2022-07-29T01:48:50;14.20;;;9.33;;
5662;SDS011;2854;42.692;23.364;2022-07-29T01:51:19;15.17;;;9.60;;
5662;SDS011;2854;42.692;23.364;2022-07-29T01:56:39;16.97;;;10.73;;
5662;SDS011;2854;42.692;23.364;2022-07-29T01:59:07;14.97;;;10.40;;
5662;SDS011;2854;42.692;23.364;2022-07-29T02:01:33;12.40;;;10.30;;
5662;SDS011;2854;42.692;23.364;2022-07-29T02:04:01;15.87;;;11.20;;
5662;SDS011;2854;42.692;23.364;2022-07-29T02:06:27;16.23;;;9.97;;
5662;SDS011;2854;42.692;23.364;2022-07-29T02:08:54;14.67;;;9.47;;
5662;SDS011;2854;42.692;23.364;2022-07-29T02:11:20;13.43;;;9.70;;
5662;SDS011;2854;42.692;23.364;2022-07-29T02:13:45;16.43;;;10.30;;
5662;SDS011;2854;42.692;23.364;2022-07-29T02:16:12;16.23;;;11.27;;
5662;SDS011;2854;42.692;23.364;2022-07-29T02:18:39;12.10;;;8.83;;
5662;SDS011;2854;42.692;23.364;2022-07-29T02:21:04;18.20;;;9.73;;
5662;SDS011;2854;42.692;23.364;2022-07-29T02:23:30;13.77;;;9.43;;
5662;SDS011;2854;42.692;23.364;2022-07-29T02:25:56;13.23;;;9.23;;
5662;SDS011;2854;42.692;23.364;2022-07-29T02:28:22;13.47;;;9.77;;
5662;SDS011;2854;42.692;23.364;2022-07-29T02:30:48;15.03;;;9.60;;
5662;SDS011;2854;42.692;23.364;2022-07-29T02:33:15;21.47;;;11.17;;
5662;SDS011;2854;42.692;23.364;2022-07-29T02:35:41;14.40;;;10.03;;
5662;SDS011;2854;42.692;23.364;2022-07-29T02:38:09;13.87;;;9.87;;
5662;SDS011;2854;42.692;23.364;2022-07-29T02:40:55;13.77;;;9.97;;
5662;SDS011;2854;42.692;23.364;2022-07-29T02:43:22;15.93;;;9.93;;
5662;SDS011;2854;42.692;23.364;2022-07-29T02:45:47;29.53;;;10.53;;
5662;SDS011;2854;42.692;23.364;2022-07-29T02:48:16;13.23;;;9.97;;
5662;SDS011;2854;42.692;23.364;2022-07-29T02:50:49;18.00;;;11.90;;
5662;SDS011;2854;42.692;23.364;2022-07-29T02:53:16;20.10;;;13.97;;
5662;SDS011;2854;42.692;23.364;2022-07-29T02:58:30;21.20;;;12.93;;
5662;SDS011;2854;42.692;23.364;2022-07-29T03:00:58;22.63;;;14.73;;
5662;SDS011;2854;42.692;23.364;2022-07-29T03:03:25;17.40;;;12.70;;
5662;SDS011;2854;42.692;23.364;2022-07-29T03:05:56;23.70;;;12.47;;
5662;SDS011;2854;42.692;23.364;2022-07-29T03:08:23;18.10;;;11.00;;
5662;SDS011;2854;42.692;23.364;2022-07-29T03:10:49;15.30;;;11.23;;
5662;SDS011;2854;42.692;23.364;2022-07-29T03:13:16;15.23;;;10.50;;
5662;SDS011;2854;42.692;23.364;2022-07-29T03:15:42;10.37;;;8.47;;
5662;SDS011;2854;42.692;23.364;2022-07-29T03:18:08;11.10;;;8.37;;
5662;SDS011;2854;42.692;23.364;2022-07-29T03:20:34;13.50;;;9.17;;
5662;SDS011;2854;42.692;23.364;2022-07-29T03:22:59;13.33;;;8.50;;
5662;SDS011;2854;42.692;23.364;2022-07-29T03:25:24;13.50;;;9.30;;
5662;SDS011;2854;42.692;23.364;2022-07-29T03:27:52;28.50;;;9.57;;
5662;SDS011;2854;42.692;23.364;2022-07-29T03:30:17;12.30;;;9.10;;
5662;SDS011;2854;42.692;23.364;2022-07-29T03:32:42;14.70;;;9.00;;
5662;SDS011;2854;42.692;23.364;2022-07-29T03:35:08;16.80;;;10.23;;
5662;SDS011;2854;42.692;23.364;2022-07-29T03:37:33;15.77;;;9.57;;
5662;SDS011;2854;42.692;23.364;2022-07-29T03:40:02;14.67;;;9.10;;
5662;SDS011;2854;42.692;23.364;2022-07-29T03:42:29;15.37;;;9.63;;
5662;SDS011;2854;42.692;23.364;2022-07-29T03:44:55;13.07;;;9.67;;
5662;SDS011;2854;42.692;23.364;2022-07-29T03:47:23;12.73;;;9.27;;
5662;SDS011;2854;42.692;23.364;2022-07-29T03:49:51;13.97;;;9.40;;
5662;SDS011;2854;42.692;23.364;2022-07-29T03:52:17;20.10;;;9.50;;
5662;SDS011;2854;42.692;23.364;2022-07-29T03:54:43;10.00;;;8.17;;
5662;SDS011;2854;42.692;23.364;2022-07-29T03:57:08;11.17;;;8.40;;
5662;SDS011;2854;42.692;23.364;2022-07-29T03:59:35;14.80;;;9.07;;
5662;SDS011;2854;42.692;23.364;2022-07-29T04:02:03;18.93;;;8.93;;
5662;SDS011;2854;42.692;23.364;2022-07-29T04:04:28;14.07;;;8.83;;
5662;SDS011;2854;42.692;23.364;2022-07-29T04:06:57;10.83;;;8.17;;
5662;SDS011;2854;42.692;23.364;2022-07-29T04:09:22;12.27;;;8.83;;
5662;SDS011;2854;42.692;23.364;2022-07-29T04:11:47;11.50;;;7.57;;
5662;SDS011;2854;42.692;23.364;2022-07-29T04:14:12;8.13;;;7.33;;
5662;SDS011;2854;42.692;23.364;2022-07-29T04:16:38;10.70;;;8.17;;
5662;SDS011;2854;42.692;23.364;2022-07-29T04:19:03;10.33;;;8.33;;
5662;SDS011;2854;42.692;23.364;2022-07-29T04:21:28;15.53;;;8.90;;
5662;SDS011;2854;42.692;23.364;2022-07-29T04:23:54;10.30;;;8.43;;
5662;SDS011;2854;42.692;23.364;2022-07-29T04:26:19;11.97;;;7.83;;
5662;SDS011;2854;42.692;23.364;2022-07-29T04:28:45;15.60;;;8.73;;
5662;SDS011;2854;42.692;23.364;2022-07-29T04:31:10;11.10;;;8.30;;
5662;SDS011;2854;42.692;23.364;2022-07-29T04:33:36;10.20;;;8.37;;
5662;SDS011;2854;42.692;23.364;2022-07-29T04:36:01;10.03;;;8.60;;
5662;SDS011;2854;42.692;23.364;2022-07-29T04:38:26;11.77;;;7.70;;
5662;SDS011;2854;42.692;23.364;2022-07-29T04:40:52;16.00;;;7.27;;
5662;SDS011;2854;42.692;23.364;2022-07-29T04:43:17;11.93;;;7.53;;
5662;SDS011;2854;42.692;23.364;2022-07-29T04:45:42;10.07;;;6.80;;
5662;SDS011;2854;42.692;23.364;2022-07-29T04:48:08;17.97;;;6.90;;
5662;SDS011;2854;42.692;23.364;2022-07-29T04:50:33;6.60;;;6.00;;
5662;SDS011;2854;42.692;23.364;2022-07-29T04:52:58;8.30;;;6.87;;
5662;SDS011;2854;42.692;23.364;2022-07-29T04:55:24;7.73;;;5.70;;
5662;SDS011;2854;42.692;23.364;2022-07-29T04:57:50;8.20;;;6.60;;
5662;SDS011;2854;42.692;23.364;2022-07-29T05:00:15;7.20;;;6.50;;
5662;SDS011;2854;42.692;23.364;2022-07-29T05:02:40;8.20;;;6.23;;
5662;SDS011;2854;42.692;23.364;2022-07-29T05:05:06;11.03;;;6.43;;
5662;SDS011;2854;42.692;23.364;2022-07-29T05:07:32;6.97;;;6.13;;
5662;SDS011;2854;42.692;23.364;2022-07-29T05:09:57;7.70;;;6.03;;
5662;SDS011;2854;42.692;23.364;2022-07-29T05:12:23;9.30;;;6.57;;
5662;SDS011;2854;42.692;23.364;2022-07-29T05:14:48;7.13;;;6.40;;
5662;SDS011;2854;42.692;23.364;2022-07-29T05:17:13;6.70;;;6.10;;
5662;SDS011;2854;42.692;23.364;2022-07-29T05:19:39;7.07;;;6.30;;
5662;SDS011;2854;42.692;23.364;2022-07-29T05:22:04;6.43;;;5.80;;
5662;SDS011;2854;42.692;23.364;2022-07-29T05:24:30;8.03;;;6.23;;
5662;SDS011;2854;42.692;23.364;2022-07-29T05:26:55;6.77;;;5.80;;
5662;SDS011;2854;42.692;23.364;2022-07-29T05:29:21;7.43;;;5.60;;
5662;SDS011;2854;42.692;23.364;2022-07-29T05:31:46;7.57;;;6.60;;
5662;SDS011;2854;42.692;23.364;2022-07-29T05:34:11;7.73;;;5.80;;
5662;SDS011;2854;42.692;23.364;2022-07-29T05:36:37;8.00;;;5.50;;
5662;SDS011;2854;42.692;23.364;2022-07-29T05:39:02;6.47;;;5.57;;
5662;SDS011;2854;42.692;23.364;2022-07-29T05:41:27;5.57;;;5.07;;
5662;SDS011;2854;42.692;23.364;2022-07-29T05:43:53;7.00;;;4.93;;
5662;SDS011;2854;42.692;23.364;2022-07-29T05:46:19;5.80;;;5.30;;
5662;SDS011;2854;42.692;23.364;2022-07-29T05:48:44;5.50;;;5.10;;
5662;SDS011;2854;42.692;23.364;2022-07-29T05:51:09;5.70;;;4.93;;
5662;SDS011;2854;42.692;23.364;2022-07-29T05:53:35;5.03;;;4.63;;
5662;SDS011;2854;42.692;23.364;2022-07-29T05:56:02;8.90;;;4.90;;
5662;SDS011;2854;42.692;23.364;2022-07-29T05:58:27;5.07;;;4.57;;
5662;SDS011;2854;42.692;23.364;2022-07-29T06:00:53;4.30;;;3.90;;
5662;SDS011;2854;42.692;23.364;2022-07-29T06:03:18;7.50;;;4.63;;
5662;SDS011;2854;42.692;23.364;2022-07-29T06:05:44;3.90;;;3.70;;
5662;SDS011;2854;42.692;23.364;2022-07-29T06:08:09;5.97;;;4.50;;
5662;SDS011;2854;42.692;23.364;2022-07-29T06:10:34;6.67;;;6.00;;
5662;SDS011;2854;42.692;23.364;2022-07-29T06:13:00;11.20;;;9.60;;
5662;SDS011;2854;42.692;23.364;2022-07-29T06:15:25;7.07;;;5.80;;
5662;SDS011;2854;42.692;23.364;2022-07-29T06:17:51;5.63;;;4.50;;
5662;SDS011;2854;42.692;23.364;2022-07-29T06:20:17;5.43;;;5.03;;
5662;SDS011;2854;42.692;23.364;2022-07-29T06:22:42;5.40;;;4.90;;
5662;SDS011;2854;42.692;23.364;2022-07-29T06:25:08;5.30;;;4.87;;
5662;SDS011;2854;42.692;23.364;2022-07-29T06:27:33;6.80;;;5.60;;
5662;SDS011;2854;42.692;23.364;2022-07-29T06:29:58;5.07;;;4.67;;
5662;SDS011;2854;42.692;23.364;2022-07-29T06:32:24;4.80;;;4.47;;
5662;SDS011;2854;42.692;23.364;2022-07-29T06:34:49;5.57;;;5.17;;
5662;SDS011;2854;42.692;23.364;2022-07-29T06:37:15;5.30;;;4.80;;
5662;SDS011;2854;42.692;23.364;2022-07-29T06:39:40;5.53;;;5.10;;
5662;SDS011;2854;42.692;23.364;2022-07-29T06:42:06;4.63;;;4.23;;
5662;SDS011;2854;42.692;23.364;2022-07-29T06:44:31;5.83;;;5.33;;
5662;SDS011;2854;42.692;23.364;2022-07-29T06:46:58;5.23;;;4.83;;
5662;SDS011;2854;42.692;23.364;2022-07-29T06:49:24;7.20;;;3.93;;
5662;SDS011;2854;42.692;23.364;2022-07-29T06:51:50;5.43;;;4.27;;
5662;SDS011;2854;42.692;23.364;2022-07-29T06:54:16;4.63;;;4.23;;
5662;SDS011;2854;42.692;23.364;2022-07-29T06:56:41;4.50;;;4.10;;
5662;SDS011;2854;42.692;23.364;2022-07-29T06:59:08;3.83;;;3.63;;
5662;SDS011;2854;42.692;23.364;2022-07-29T07:01:35;5.27;;;4.07;;
5662;SDS011;2854;42.692;23.364;2022-07-29T07:04:00;3.50;;;3.30;;
5662;SDS011;2854;42.692;23.364;2022-07-29T07:06:26;4.37;;;3.17;;
5662;SDS011;2854;42.692;23.364;2022-07-29T07:08:51;4.00;;;3.70;;
5662;SDS011;2854;42.692;23.364;2022-07-29T07:11:16;3.10;;;3.00;;
5662;SDS011;2854;42.692;23.364;2022-07-29T07:13:41;3.37;;;3.17;;
5662;SDS011;2854;42.692;23.364;2022-07-29T07:16:07;4.07;;;3.80;;
5662;SDS011;2854;42.692;23.364;2022-07-29T07:18:32;3.73;;;3.53;;
5662;SDS011;2854;42.692;23.364;2022-07-29T07:20:57;5.20;;;3.87;;
5662;SDS011;2854;42.692;23.364;2022-07-29T07:23:23;3.30;;;3.10;;
5662;SDS011;2854;42.692;23.364;2022-07-29T07:25:48;3.80;;;3.57;;
5662;SDS011;2854;42.692;23.364;2022-07-29T07:28:14;3.83;;;3.37;;
5662;SDS011;2854;42.692;23.364;2022-07-29T07:30:39;3.57;;;3.37;;
5662;SDS011;2854;42.692;23.364;2022-07-29T07:33:04;3.13;;;3.03;;
5662;SDS011;2854;42.692;23.364;2022-07-29T07:35:30;3.60;;;3.33;;
5662;SDS011;2854;42.692;23.364;2022-07-29T07:37:55;3.70;;;3.40;;
5662;SDS011;2854;42.692;23.364;2022-07-29T07:40:20;3.50;;;3.30;;
5662;SDS011;2854;42.692;23.364;2022-07-29T07:42:46;3.73;;;3.43;;
5662;SDS011;2854;42.692;23.364;2022-07-29T07:45:11;3.60;;;3.40;;
5662;SDS011;2854;42.692;23.364;2022-07-29T07:47:37;3.80;;;3.60;;
5662;SDS011;2854;42.692;23.364;2022-07-29T07:50:05;3.87;;;3.57;;
5662;SDS011;2854;42.692;23.364;2022-07-29T07:52:31;3.73;;;3.53;;
5662;SDS011;2854;42.692;23.364;2022-07-29T07:54:56;3.00;;;2.80;;
5662;SDS011;2854;42.692;23.364;2022-07-29T07:57:22;3.77;;;3.57;;
5662;SDS011;2854;42.692;23.364;2022-07-29T07:59:47;3.87;;;3.57;;
5662;SDS011;2854;42.692;23.364;2022-07-29T08:02:12;5.33;;;3.20;;
5662;SDS011;2854;42.692;23.364;2022-07-29T08:04:37;3.60;;;3.30;;
5662;SDS011;2854;42.692;23.364;2022-07-29T08:07:05;3.73;;;2.87;;
5662;SDS011;2854;42.692;23.364;2022-07-29T08:09:30;3.20;;;3.00;;
5662;SDS011;2854;42.692;23.364;2022-07-29T08:11:56;3.03;;;2.93;;
5662;SDS011;2854;42.692;23.364;2022-07-29T08:14:22;3.30;;;3.10;;
5662;SDS011;2854;42.692;23.364;2022-07-29T08:16:47;3.30;;;3.10;;
5662;SDS011;2854;42.692;23.364;2022-07-29T08:19:13;3.57;;;2.80;;
5662;SDS011;2854;42.692;23.364;2022-07-29T08:21:38;3.20;;;3.00;;
5662;SDS011;2854;42.692;23.364;2022-07-29T08:24:04;2.93;;;2.77;;
5662;SDS011;2854;42.692;23.364;2022-07-29T08:26:48;3.20;;;3.10;;
5662;SDS011;2854;42.692;23.364;2022-07-29T08:29:13;2.90;;;2.80;;
5662;SDS011;2854;42.692;23.364;2022-07-29T08:31:38;3.33;;;3.13;;
5662;SDS011;2854;42.692;23.364;2022-07-29T08:34:04;3.27;;;3.07;;
5662;SDS011;2854;42.692;23.364;2022-07-29T08:36:30;3.07;;;2.87;;
5662;SDS011;2854;42.692;23.364;2022-07-29T08:38:55;3.40;;;3.13;;
5662;SDS011;2854;42.692;23.364;2022-07-29T08:41:21;3.00;;;2.70;;
5662;SDS011;2854;42.692;23.364;2022-07-29T08:43:47;2.73;;;2.63;;
5662;SDS011;2854;42.692;23.364;2022-07-29T08:46:12;2.40;;;2.30;;
5662;SDS011;2854;42.692;23.364;2022-07-29T08:48:39;3.30;;;3.00;;
5662;SDS011;2854;42.692;23.364;2022-07-29T08:51:05;2.97;;;2.77;;
5662;SDS011;2854;42.692;23.364;2022-07-29T08:53:31;3.50;;;3.30;;
5662;SDS011;2854;42.692;23.364;2022-07-29T08:55:57;3.10;;;2.90;;
5662;SDS011;2854;42.692;23.364;2022-07-29T08:58:23;2.93;;;2.73;;
5662;SDS011;2854;42.692;23.364;2022-07-29T09:00:52;2.63;;;2.50;;
5662;SDS011;2854;42.692;23.364;2022-07-29T09:03:18;3.37;;;3.17;;
5662;SDS011;2854;42.692;23.364;2022-07-29T09:05:47;2.87;;;2.67;;
5662;SDS011;2854;42.692;23.364;2022-07-29T09:08:13;4.90;;;2.70;;
5662;SDS011;2854;42.692;23.364;2022-07-29T09:10:39;2.60;;;2.50;;
5662;SDS011;2854;42.692;23.364;2022-07-29T09:13:04;2.13;;;2.03;;
5662;SDS011;2854;42.692;23.364;2022-07-29T09:15:30;3.50;;;3.30;;
5662;SDS011;2854;42.692;23.364;2022-07-29T09:17:55;2.67;;;2.47;;
5662;SDS011;2854;42.692;23.364;2022-07-29T09:20:22;3.03;;;2.73;;
5662;SDS011;2854;42.692;23.364;2022-07-29T09:22:48;2.83;;;2.70;;
5662;SDS011;2854;42.692;23.364;2022-07-29T09:25:35;2.80;;;2.50;;
5662;SDS011;2854;42.692;23.364;2022-07-29T09:28:10;2.60;;;2.50;;
5662;SDS011;2854;42.692;23.364;2022-07-29T09:30:35;3.13;;;2.93;;
5662;SDS011;2854;42.692;23.364;2022-07-29T09:33:01;2.93;;;2.73;;
5662;SDS011;2854;42.692;23.364;2022-07-29T09:35:28;3.40;;;3.20;;
5662;SDS011;2854;42.692;23.364;2022-07-29T09:37:53;3.50;;;3.30;;
5662;SDS011;2854;42.692;23.364;2022-07-29T09:42:47;3.37;;;3.07;;
5662;SDS011;2854;42.692;23.364;2022-07-29T09:45:13;6.27;;;3.47;;
5662;SDS011;2854;42.692;23.364;2022-07-29T09:47:50;2.67;;;2.57;;
5662;SDS011;2854;42.692;23.364;2022-07-29T09:50:15;2.67;;;2.47;;
5662;SDS011;2854;42.692;23.364;2022-07-29T09:52:45;2.93;;;2.73;;
5662;SDS011;2854;42.692;23.364;2022-07-29T09:55:10;2.20;;;2.10;;
5662;SDS011;2854;42.692;23.364;2022-07-29T09:57:37;2.20;;;2.10;;
5662;SDS011;2854;42.692;23.364;2022-07-29T10:00:09;2.30;;;2.10;;
5662;SDS011;2854;42.692;23.364;2022-07-29T10:02:35;2.47;;;2.37;;
5662;SDS011;2854;42.692;23.364;2022-07-29T10:05:02;2.73;;;2.53;;
5662;SDS011;2854;42.692;23.364;2022-07-29T10:07:50;2.43;;;2.33;;
5662;SDS011;2854;42.692;23.364;2022-07-29T10:10:27;1.90;;;1.80;;
5662;SDS011;2854;42.692;23.364;2022-07-29T10:12:57;2.10;;;2.00;;
5662;SDS011;2854;42.692;23.364;2022-07-29T10:15:23;2.17;;;2.07;;
5662;SDS011;2854;42.692;23.364;2022-07-29T10:17:49;2.60;;;2.50;;
5662;SDS011;2854;42.692;23.364;2022-07-29T10:20:15;2.17;;;2.07;;
5662;SDS011;2854;42.692;23.364;2022-07-29T10:22:41;2.37;;;2.27;;
5662;SDS011;2854;42.692;23.364;2022-07-29T10:25:07;2.10;;;2.00;;
5662;SDS011;2854;42.692;23.364;2022-07-29T10:27:34;2.33;;;2.13;;
5662;SDS011;2854;42.692;23.364;2022-07-29T10:29:59;1.90;;;1.80;;
5662;SDS011;2854;42.692;23.364;2022-07-29T10:42:18;2.43;;;2.33;;
5662;SDS011;2854;42.692;23.364;2022-07-29T10:44:43;2.43;;;2.33;;
5662;SDS011;2854;42.692;23.364;2022-07-29T10:47:22;2.63;;;2.53;;
5662;SDS011;2854;42.692;23.364;2022-07-29T10:50:00;2.43;;;2.33;;
5662;SDS011;2854;42.692;23.364;2022-07-29T10:55:27;2.30;;;2.20;;
5662;SDS011;2854;42.692;23.364;2022-07-29T10:58:28;2.10;;;2.00;;
5662;SDS011;2854;42.692;23.364;2022-07-29T11:00:48;2.83;;;2.73;;
5662;SDS011;2854;42.692;23.364;2022-07-29T11:05:57;2.00;;;1.90;;
5662;SDS011;2854;42.692;23.364;2022-07-29T11:08:23;2.33;;;2.23;;
5662;SDS011;2854;42.692;23.364;2022-07-29T11:10:52;2.43;;;2.33;;
5662;SDS011;2854;42.692;23.364;2022-07-29T11:16:02;2.57;;;2.37;;
5662;SDS011;2854;42.692;23.364;2022-07-29T11:18:28;2.77;;;2.57;;
5662;SDS011;2854;42.692;23.364;2022-07-29T11:20:53;2.40;;;2.30;;
5662;SDS011;2854;42.692;23.364;2022-07-29T11:25:44;2.87;;;2.67;;
5662;SDS011;2854;42.692;23.364;2022-07-29T11:28:13;2.80;;;2.60;;
5662;SDS011;2854;42.692;23.364;2022-07-29T11:30:58;2.63;;;2.50;;
5662;SDS011;2854;42.692;23.364;2022-07-29T11:33:27;2.80;;;2.60;;
5662;SDS011;2854;42.692;23.364;2022-07-29T11:36:09;3.03;;;2.83;;
5662;SDS011;2854;42.692;23.364;2022-07-29T11:38:35;3.43;;;2.50;;
5662;SDS011;2854;42.692;23.364;2022-07-29T11:49:00;2.90;;;2.80;;
5662;SDS011;2854;42.692;23.364;2022-07-29T11:51:25;3.13;;;2.93;;
5662;SDS011;2854;42.692;23.364;2022-07-29T11:53:52;3.37;;;3.17;;
5662;SDS011;2854;42.692;23.364;2022-07-29T11:56:19;2.70;;;2.60;;
5662;SDS011;2854;42.692;23.364;2022-07-29T11:58:46;3.37;;;3.17;;
5662;SDS011;2854;42.692;23.364;2022-07-29T12:01:15;4.80;;;3.40;;
5662;SDS011;2854;42.692;23.364;2022-07-29T12:03:41;2.93;;;2.83;;
5662;SDS011;2854;42.692;23.364;2022-07-29T12:06:13;6.53;;;3.67;;
5662;SDS011;2854;42.692;23.364;2022-07-29T12:08:41;3.43;;;3.23;;
5662;SDS011;2854;42.692;23.364;2022-07-29T12:11:16;3.50;;;3.30;;
5662;SDS011;2854;42.692;23.364;2022-07-29T12:13:42;3.73;;;3.53;;
5662;SDS011;2854;42.692;23.364;2022-07-29T12:16:07;3.50;;;3.30;;
5662;SDS011;2854;42.692;23.364;2022-07-29T12:18:32;3.70;;;3.43;;
5662;SDS011;2854;42.692;23.364;2022-07-29T12:20:58;3.80;;;3.60;;
5662;SDS011;2854;42.692;23.364;2022-07-29T12:23:24;4.37;;;4.07;;
5662;SDS011;2854;42.692;23.364;2022-07-29T12:25:49;4.00;;;3.80;;
5662;SDS011;2854;42.692;23.364;2022-07-29T12:28:16;3.63;;;3.30;;
5662;SDS011;2854;42.692;23.364;2022-07-29T12:30:44;3.20;;;3.00;;
5662;SDS011;2854;42.692;23.364;2022-07-29T12:33:31;3.60;;;3.40;;
5662;SDS011;2854;42.692;23.364;2022-07-29T12:35:57;4.20;;;3.90;;
5662;SDS011;2854;42.692;23.364;2022-07-29T12:38:22;3.93;;;3.63;;
5662;SDS011;2854;42.692;23.364;2022-07-29T12:40:48;5.73;;;3.93;;
5662;SDS011;2854;42.692;23.364;2022-07-29T12:43:17;3.97;;;3.77;;
5662;SDS011;2854;42.692;23.364;2022-07-29T12:45:44;7.60;;;4.07;;
5662;SDS011;2854;42.692;23.364;2022-07-29T12:48:10;4.17;;;3.77;;
5662;SDS011;2854;42.692;23.364;2022-07-29T12:50:36;4.00;;;3.80;;
5662;SDS011;2854;42.692;23.364;2022-07-29T12:53:08;3.90;;;3.70;;
5662;SDS011;2854;42.692;23.364;2022-07-29T12:55:54;3.97;;;3.67;;
5662;SDS011;2854;42.692;23.364;2022-07-29T13:01:00;3.80;;;3.50;;
5662;SDS011;2854;42.692;23.364;2022-07-29T13:03:26;4.80;;;4.50;;
5662;SDS011;2854;42.692;23.364;2022-07-29T13:05:51;4.80;;;4.20;;
5662;SDS011;2854;42.692;23.364;2022-07-29T13:08:17;5.33;;;3.80;;
5662;SDS011;2854;42.692;23.364;2022-07-29T13:10:45;3.57;;;3.37;;
5662;SDS011;2854;42.692;23.364;2022-07-29T13:13:11;4.13;;;3.87;;
5662;SDS011;2854;42.692;23.364;2022-07-29T13:15:38;4.07;;;3.77;;
5662;SDS011;2854;42.692;23.364;2022-07-29T13:18:04;4.20;;;3.90;;
5662;SDS011;2854;42.692;23.364;2022-07-29T13:20:30;3.70;;;3.50;;
5662;SDS011;2854;42.692;23.364;2022-07-29T13:22:59;4.50;;;4.10;;
5662;SDS011;2854;42.692;23.364;2022-07-29T13:25:29;3.97;;;3.70;;
5662;SDS011;2854;42.692;23.364;2022-07-29T13:27:55;4.20;;;4.00;;
5662;SDS011;2854;42.692;23.364;2022-07-29T13:30:21;4.67;;;4.37;;
5662;SDS011;2854;42.692;23.364;2022-07-29T13:32:47;4.00;;;3.80;;
5662;SDS011;2854;42.692;23.364;2022-07-29T13:35:12;3.90;;;3.67;;
5662;SDS011;2854;42.692;23.364;2022-07-29T13:37:38;3.40;;;3.10;;
5662;SDS011;2854;42.692;23.364;2022-07-29T13:40:04;4.57;;;3.50;;
5662;SDS011;2854;42.692;23.364;2022-07-29T13:42:31;4.20;;;3.90;;
5662;SDS011;2854;42.692;23.364;2022-07-29T13:44:56;4.97;;;4.60;;
5662;SDS011;2854;42.692;23.364;2022-07-29T13:47:22;4.17;;;3.87;;
5662;SDS011;2854;42.692;23.364;2022-07-29T13:49:47;4.03;;;3.73;;
5662;SDS011;2854;42.692;23.364;2022-07-29T13:52:13;3.87;;;3.67;;
5662;SDS011;2854;42.692;23.364;2022-07-29T13:54:38;3.67;;;3.40;;
5662;SDS011;2854;42.692;23.364;2022-07-29T13:57:04;3.90;;;3.70;;
5662;SDS011;2854;42.692;23.364;2022-07-29T13:59:29;4.33;;;4.03;;
5662;SDS011;2854;42.692;23.364;2022-07-29T14:01:55;4.20;;;3.80;;
5662;SDS011;2854;42.692;23.364;2022-07-29T14:04:20;3.83;;;3.63;;
5662;SDS011;2854;42.692;23.364;2022-07-29T14:06:46;3.80;;;3.50;;
5662;SDS011;2854;42.692;23.364;2022-07-29T14:09:12;3.70;;;3.50;;
5662;SDS011;2854;42.692;23.364;2022-07-29T14:11:37;4.00;;;3.70;;
5662;SDS011;2854;42.692;23.364;2022-07-29T14:14:03;6.53;;;3.73;;
5662;SDS011;2854;42.692;23.364;2022-07-29T14:16:28;4.40;;;4.10;;
5662;SDS011;2854;42.692;23.364;2022-07-29T14:18:54;4.07;;;3.77;;
5662;SDS011;2854;42.692;23.364;2022-07-29T14:21:19;3.97;;;3.67;;
5662;SDS011;2854;42.692;23.364;2022-07-29T14:23:44;4.47;;;4.00;;
5662;SDS011;2854;42.692;23.364;2022-07-29T14:26:10;3.80;;;3.60;;
5662;SDS011;2854;42.692;23.364;2022-07-29T14:28:35;3.80;;;3.60;;
5662;SDS011;2854;42.692;23.364;2022-07-29T14:31:00;3.80;;;3.60;;
5662;SDS011;2854;42.692;23.364;2022-07-29T14:33:25;4.33;;;4.03;;
5662;SDS011;2854;42.692;23.364;2022-07-29T14:35:51;4.50;;;4.20;;
5662;SDS011;2854;42.692;23.364;2022-07-29T14:38:16;3.93;;;3.73;;
5662;SDS011;2854;42.692;23.364;2022-07-29T14:40:41;3.63;;;3.40;;
5662;SDS011;2854;42.692;23.364;2022-07-29T14:43:06;4.30;;;3.90;;
5662;SDS011;2854;42.692;23.364;2022-07-29T14:45:32;4.10;;;3.70;;
5662;SDS011;2854;42.692;23.364;2022-07-29T14:47:57;3.50;;;3.30;;
5662;SDS011;2854;42.692;23.364;2022-07-29T14:50:25;3.63;;;3.50;;
5662;SDS011;2854;42.692;23.364;2022-07-29T14:52:51;3.50;;;3.30;;
5662;SDS011;2854;42.692;23.364;2022-07-29T14:55:16;4.30;;;4.07;;
5662;SDS011;2854;42.692;23.364;2022-07-29T14:57:42;4.20;;;3.90;;
5662;SDS011;2854;42.692;23.364;2022-07-29T15:00:07;3.70;;;3.50;;
5662;SDS011;2854;42.692;23.364;2022-07-29T15:02:33;4.00;;;3.70;;
5662;SDS011;2854;42.692;23.364;2022-07-29T15:04:58;5.27;;;4.00;;
5662;SDS011;2854;42.692;23.364;2022-07-29T15:07:24;4.57;;;4.27;;
5662;SDS011;2854;42.692;23.364;2022-07-29T15:09:49;4.03;;;3.83;;
5662;SDS011;2854;42.692;23.364;2022-07-29T15:12:14;3.87;;;3.67;;
5662;SDS011;2854;42.692;23.364;2022-07-29T15:14:40;4.30;;;4.00;;
5662;SDS011;2854;42.692;23.364;2022-07-29T15:17:05;4.50;;;4.20;;
5662;SDS011;2854;42.692;23.364;2022-07-29T15:19:31;4.40;;;4.10;;
5662;SDS011;2854;42.692;23.364;2022-07-29T15:21:56;4.33;;;4.07;;
5662;SDS011;2854;42.692;23.364;2022-07-29T15:24:21;3.70;;;3.50;;
5662;SDS011;2854;42.692;23.364;2022-07-29T15:26:47;4.10;;;3.90;;
5662;SDS011;2854;42.692;23.364;2022-07-29T15:29:12;4.40;;;4.10;;
5662;SDS011;2854;42.692;23.364;2022-07-29T15:31:38;4.50;;;4.10;;
5662;SDS011;2854;42.692;23.364;2022-07-29T15:34:03;4.20;;;3.90;;
5662;SDS011;2854;42.692;23.364;2022-07-29T15:36:29;4.37;;;4.07;;
5662;SDS011;2854;42.692;23.364;2022-07-29T15:38:54;4.50;;;4.20;;
5662;SDS011;2854;42.692;23.364;2022-07-29T15:41:20;4.67;;;4.10;;
5662;SDS011;2854;42.692;23.364;2022-07-29T15:43:45;3.77;;;3.57;;